createdAt,value
2022-10-21T00:00:51.045Z,1.87
2022-10-21T00:03:19.065Z,2.67
2022-10-21T00:05:47.255Z,2.25
2022-10-21T00:08:15.617Z,3.42
2022-10-21T00:10:42.952Z,1.02
2022-10-21T00:13:10.472Z,5.05
2022-10-21T00:15:37.656Z,5.25
2022-10-21T00:18:04.753Z,5.15
2022-10-21T00:20:35.943Z,4.45
2022-10-21T00:23:05.998Z,5.43
2022-10-21T00:25:33.020Z,5.28
2022-10-21T00:28:00.088Z,5.00
2022-10-21T00:30:27.156Z,5.65
2022-10-21T00:32:54.223Z,1.73
2022-10-21T00:35:21.276Z,2.67
2022-10-21T00:37:48.341Z,7.70
2022-10-21T00:40:15.741Z,4.53
2022-10-21T00:42:46.390Z,3.08
2022-10-21T00:45:28.269Z,2.55
2022-10-21T00:48:50.737Z,3.28
2022-10-21T00:51:18.516Z,2.67
2022-10-21T00:53:49.156Z,2.85
2022-10-21T00:56:26.824Z,4.90
2022-10-21T00:58:57.247Z,1.40
2022-10-21T01:01:24.543Z,4.32
2022-10-21T01:03:51.719Z,2.55
2022-10-21T01:06:21.825Z,2.50
2022-10-21T01:08:49.276Z,2.35
2022-10-21T01:11:19.265Z,2.35
2022-10-21T01:14:23.682Z,2.65
2022-10-21T01:17:20.728Z,7.15
2022-10-21T01:20:35.027Z,2.13
2022-10-21T01:23:22.274Z,4.15
2022-10-21T01:26:15.153Z,1.27
2022-10-21T01:29:00.372Z,4.63
2022-10-21T01:31:39.285Z,2.90
2022-10-21T01:34:32.321Z,1.55
2022-10-21T01:37:19.485Z,1.42
2022-10-21T01:39:50.205Z,1.83
2022-10-21T01:42:25.939Z,2.53
2022-10-21T01:45:00.625Z,2.60
2022-10-21T01:47:50.238Z,1.58
2022-10-21T01:50:22.541Z,2.65
2022-10-21T01:52:53.312Z,1.55
2022-10-21T01:55:23.845Z,3.42
2022-10-21T01:57:56.565Z,2.25
2022-10-21T02:02:56.632Z,2.95
2022-10-21T02:05:28.931Z,2.50
2022-10-21T02:07:56.299Z,2.17
2022-10-21T02:10:27.425Z,4.78
2022-10-21T02:12:58.747Z,3.72
2022-10-21T02:15:26.689Z,2.08
2022-10-21T02:18:17.366Z,2.22
2022-10-21T02:20:45.117Z,2.72
2022-10-21T02:23:15.265Z,4.10
2022-10-21T02:25:46.015Z,3.30
2022-10-21T02:28:14.135Z,1.50
2022-10-21T02:30:49.329Z,1.60
2022-10-21T02:33:23.927Z,1.50
2022-10-21T02:35:58.000Z,2.10
2022-10-21T02:38:30.323Z,3.67
2022-10-21T02:41:00.087Z,3.63
2022-10-21T02:43:35.617Z,2.35
2022-10-21T02:46:08.631Z,4.35
2022-10-21T02:48:36.936Z,2.65
2022-10-21T02:51:06.615Z,3.53
2022-10-21T02:53:34.415Z,3.67
2022-10-21T02:56:02.116Z,4.07
2022-10-21T02:58:29.481Z,8.18
2022-10-21T03:00:56.904Z,3.28
2022-10-21T03:03:24.472Z,4.20
2022-10-21T03:05:51.776Z,6.82
2022-10-21T03:08:18.864Z,8.63
2022-10-21T03:10:52.209Z,6.32
2022-10-21T03:13:21.856Z,9.13
2022-10-21T03:15:50.066Z,8.40
2022-10-21T03:18:17.979Z,6.32
2022-10-21T03:20:48.135Z,9.55
2022-10-21T03:23:15.305Z,11.20
2022-10-21T03:25:42.760Z,11.05
2022-10-21T03:28:10.039Z,11.68
2022-10-21T03:30:37.095Z,7.90
2022-10-21T03:33:04.598Z,10.98
2022-10-21T03:35:31.827Z,11.10
2022-10-21T03:37:58.952Z,11.82
2022-10-21T03:40:29.938Z,13.50
2022-10-21T03:42:58.240Z,8.10
2022-10-21T03:45:26.352Z,10.07
2022-10-21T03:47:53.510Z,12.05
2022-10-21T03:50:26.111Z,12.77
2022-10-21T03:52:54.507Z,10.55
2022-10-21T03:55:24.092Z,10.48
2022-10-21T03:57:51.751Z,13.52
2022-10-21T04:00:19.306Z,14.35
2022-10-21T04:02:46.545Z,12.43
2022-10-21T04:05:13.669Z,18.75
2022-10-21T04:07:40.854Z,16.58
2022-10-21T04:10:09.179Z,9.52
2022-10-21T04:12:36.590Z,12.18
2022-10-21T04:15:05.589Z,17.70
2022-10-21T04:17:32.821Z,17.75
2022-10-21T04:19:59.871Z,8.70
2022-10-21T04:22:27.059Z,19.17
2022-10-21T04:24:54.102Z,15.43
2022-10-21T04:27:21.194Z,23.55
2022-10-21T04:29:48.285Z,7.25
2022-10-21T04:32:15.344Z,11.57
2022-10-21T04:34:42.795Z,15.40
2022-10-21T04:37:09.856Z,12.07
2022-10-21T04:39:36.931Z,9.90
2022-10-21T04:42:04.225Z,11.45
2022-10-21T04:44:31.302Z,11.80
2022-10-21T04:46:58.458Z,13.13
2022-10-21T04:49:25.571Z,11.90
2022-10-21T04:51:52.628Z,13.18
2022-10-21T04:54:19.822Z,19.45
2022-10-21T04:56:47.140Z,11.90
2022-10-21T04:59:14.205Z,13.35
2022-10-21T05:01:41.379Z,12.90
2022-10-21T05:04:08.521Z,11.70
2022-10-21T05:06:35.592Z,14.88
2022-10-21T05:09:03.278Z,16.48
2022-10-21T05:11:30.654Z,8.30
2022-10-21T05:13:57.692Z,7.35
2022-10-21T05:16:24.904Z,10.40
2022-10-21T05:18:51.975Z,11.65
2022-10-21T05:21:19.037Z,12.38
2022-10-21T05:23:46.119Z,14.45
2022-10-21T05:26:13.223Z,17.60
2022-10-21T05:28:40.330Z,14.32
2022-10-21T05:31:07.485Z,7.47
2022-10-21T05:33:34.601Z,8.23
2022-10-21T05:36:06.759Z,18.35
2022-10-21T05:38:34.833Z,12.48
2022-10-21T05:41:01.923Z,14.63
2022-10-21T05:43:29.244Z,16.40
2022-10-21T05:45:56.812Z,13.15
2022-10-21T05:48:24.659Z,10.15
2022-10-21T05:50:54.253Z,12.82
2022-10-21T05:53:25.914Z,10.48
2022-10-21T05:56:01.424Z,13.85
2022-10-21T05:58:29.688Z,9.82
2022-10-21T06:00:57.031Z,7.50
2022-10-21T06:03:29.782Z,8.27
2022-10-21T06:05:58.278Z,8.25
2022-10-21T06:08:26.099Z,10.70
2022-10-21T06:11:08.801Z,6.28
2022-10-21T06:13:36.527Z,9.57
2022-10-21T06:18:36.586Z,9.02
2022-10-21T06:21:04.455Z,5.82
2022-10-21T06:23:32.115Z,11.85
2022-10-21T06:26:03.542Z,9.48
2022-10-21T06:28:32.879Z,10.43
2022-10-21T06:31:00.000Z,10.82
2022-10-21T06:33:27.397Z,9.10
2022-10-21T06:35:55.543Z,12.05
2022-10-21T06:38:23.249Z,13.60
2022-10-21T06:40:50.302Z,6.47
2022-10-21T06:43:17.535Z,8.75
2022-10-21T06:45:44.690Z,5.00
2022-10-21T06:48:13.542Z,5.03
2022-10-21T06:50:40.685Z,7.65
2022-10-21T06:53:07.796Z,7.85
2022-10-21T06:55:35.261Z,10.85
2022-10-21T06:58:02.329Z,5.82
2022-10-21T07:02:57.418Z,8.30
2022-10-21T07:05:24.492Z,9.05
2022-10-21T07:07:51.543Z,3.25
2022-10-21T07:10:18.711Z,4.97
2022-10-21T07:12:46.826Z,6.25
2022-10-21T07:15:14.723Z,7.07
2022-10-21T07:17:42.102Z,10.25
2022-10-21T07:20:09.388Z,8.82
2022-10-21T07:22:36.446Z,12.55
2022-10-21T07:25:03.654Z,12.27
2022-10-21T07:27:30.783Z,6.28
2022-10-21T07:29:57.833Z,7.88
2022-10-21T07:32:24.953Z,4.78
2022-10-21T07:34:51.993Z,3.55
2022-10-21T07:37:19.034Z,3.63
2022-10-21T07:39:46.112Z,1.90
2022-10-21T07:42:13.200Z,3.33
2022-10-21T07:44:40.211Z,4.28
2022-10-21T07:47:07.293Z,3.22
2022-10-21T07:49:34.323Z,4.68
2022-10-21T07:52:01.441Z,8.07
2022-10-21T07:54:28.557Z,4.53
2022-10-21T07:56:55.726Z,2.70
2022-10-21T07:59:23.030Z,3.90
2022-10-21T08:01:50.682Z,2.13
2022-10-21T08:04:20.962Z,1.40
2022-10-21T08:06:48.204Z,3.13
2022-10-21T08:09:16.044Z,1.45
2022-10-21T08:11:43.882Z,1.60
2022-10-21T08:14:11.839Z,1.13
2022-10-21T08:16:39.255Z,4.25
2022-10-21T08:19:07.414Z,2.83
2022-10-21T08:21:36.256Z,1.40
2022-10-21T08:24:04.256Z,5.22
2022-10-21T08:26:31.381Z,1.33
2022-10-21T08:31:32.071Z,1.30
2022-10-21T08:33:59.389Z,3.83
2022-10-21T08:36:26.883Z,3.35
2022-10-21T08:38:54.427Z,2.00
2022-10-21T08:41:30.681Z,1.88
2022-10-21T08:44:22.651Z,1.30
2022-10-21T08:46:55.798Z,6.10
2022-10-21T08:49:46.656Z,2.85
2022-10-21T08:52:19.666Z,4.93
2022-10-21T08:55:06.038Z,4.45
2022-10-21T08:57:35.050Z,3.38
2022-10-21T09:00:11.174Z,3.05
2022-10-21T09:02:57.298Z,2.70
2022-10-21T09:05:37.621Z,3.42
2022-10-21T09:08:21.133Z,2.80
2022-10-21T09:11:20.907Z,3.53
2022-10-21T09:13:53.815Z,2.78
2022-10-21T09:16:30.732Z,2.55
2022-10-21T09:19:21.717Z,2.05
2022-10-21T09:22:05.819Z,2.55
2022-10-21T09:24:58.655Z,2.17
2022-10-21T09:27:32.196Z,2.22
2022-10-21T09:32:39.599Z,3.03
2022-10-21T09:35:17.541Z,4.68
2022-10-21T09:37:53.281Z,4.28
2022-10-21T09:40:23.879Z,4.22
2022-10-21T09:42:58.823Z,1.95
2022-10-21T09:45:36.070Z,1.55
2022-10-21T09:48:17.869Z,1.95
2022-10-21T09:50:46.916Z,1.77
2022-10-21T09:53:21.446Z,3.50
2022-10-21T09:56:01.836Z,4.82
2022-10-21T09:58:45.477Z,0.82
2022-10-21T10:01:20.998Z,0.77
2022-10-21T10:03:51.688Z,3.28
2022-10-21T10:06:36.884Z,0.60
2022-10-21T10:09:29.537Z,3.90
2022-10-21T10:11:56.714Z,5.00
2022-10-21T10:14:39.644Z,1.42
2022-10-21T10:17:30.619Z,2.33
2022-10-21T10:20:14.676Z,1.20
2022-10-21T10:22:47.771Z,2.47
2022-10-21T10:25:14.857Z,2.38
2022-10-21T10:28:01.622Z,4.55
2022-10-21T10:30:40.807Z,1.48
2022-10-21T10:33:31.338Z,1.40
2022-10-21T10:36:09.449Z,1.60
2022-10-21T10:38:53.621Z,1.73
2022-10-21T10:41:28.512Z,2.33
2022-10-21T10:43:56.115Z,4.70
2022-10-21T10:46:32.384Z,1.25
2022-10-21T10:49:17.091Z,1.63
2022-10-21T10:51:47.108Z,2.45
2022-10-21T10:54:24.825Z,2.10
2022-10-21T10:57:02.829Z,1.77
2022-10-21T11:00:03.999Z,1.48
2022-10-21T11:02:47.346Z,2.17
2022-10-21T11:05:49.575Z,1.65
2022-10-21T11:08:34.198Z,3.05
2022-10-21T11:11:11.367Z,2.63
2022-10-21T11:13:42.138Z,1.45
2022-10-21T11:16:25.460Z,2.10
2022-10-21T11:19:19.144Z,2.30
2022-10-21T11:21:52.210Z,2.78
2022-10-21T11:24:38.000Z,3.67
2022-10-21T11:27:19.033Z,3.05
2022-10-21T11:30:11.280Z,4.70
2022-10-21T11:33:33.985Z,2.53
2022-10-21T11:36:26.935Z,2.95
2022-10-21T11:39:03.169Z,11.07
2022-10-21T11:41:40.039Z,1.85
2022-10-21T11:44:29.443Z,8.05
2022-10-21T11:47:20.328Z,4.13
2022-10-21T11:50:11.606Z,1.70
2022-10-21T11:53:02.232Z,2.55
2022-10-21T11:55:38.810Z,5.20
2022-10-21T11:58:19.569Z,1.48
2022-10-21T12:01:15.212Z,7.60
2022-10-21T12:03:51.466Z,3.58
2022-10-21T12:06:57.068Z,5.78
2022-10-21T12:09:36.410Z,4.75
2022-10-21T12:14:58.698Z,9.80
2022-10-21T12:17:26.448Z,3.45
2022-10-21T12:20:03.877Z,2.08
2022-10-21T12:22:35.543Z,7.28
2022-10-21T12:25:08.716Z,3.00
2022-10-21T12:27:47.427Z,6.88
2022-10-21T12:30:27.285Z,6.30
2022-10-21T12:33:17.839Z,3.63
2022-10-21T12:36:11.265Z,3.92
2022-10-21T12:38:55.295Z,4.00
2022-10-21T12:41:37.575Z,5.88
2022-10-21T12:44:15.032Z,3.60
2022-10-21T12:46:46.088Z,2.95
2022-10-21T12:49:21.917Z,5.03
2022-10-21T12:52:10.447Z,4.93
2022-10-21T12:54:59.720Z,5.03
2022-10-21T12:57:30.925Z,3.55
2022-10-21T13:00:36.604Z,6.45
2022-10-21T13:03:12.462Z,7.32
2022-10-21T13:05:39.507Z,6.80
2022-10-21T13:08:24.476Z,5.78
2022-10-21T13:11:06.123Z,5.45
2022-10-21T13:14:17.195Z,7.72
2022-10-21T13:16:44.714Z,6.70
2022-10-21T13:19:14.770Z,6.57
2022-10-21T13:21:42.632Z,6.15
2022-10-21T13:24:12.902Z,8.15
2022-10-21T13:27:00.086Z,3.72
2022-10-21T13:29:38.412Z,5.20
2022-10-21T13:32:14.531Z,12.48
2022-10-21T13:34:55.244Z,5.20
2022-10-21T13:37:33.649Z,11.50
2022-10-21T13:40:05.589Z,5.75
2022-10-21T13:42:38.483Z,7.80
2022-10-21T13:45:25.412Z,6.07
2022-10-21T13:48:19.864Z,5.05
2022-10-21T13:50:50.075Z,7.15
2022-10-21T13:53:17.083Z,4.32
2022-10-21T13:56:01.520Z,5.63
2022-10-21T13:58:30.829Z,4.53
2022-10-21T14:01:07.801Z,7.10
2022-10-21T14:03:35.482Z,6.63
2022-10-21T14:06:03.366Z,10.90
2022-10-21T14:08:43.407Z,7.10
2022-10-21T14:11:22.643Z,8.90
2022-10-21T14:13:51.290Z,5.65
2022-10-21T14:16:34.940Z,7.82
2022-10-21T14:19:08.287Z,6.95
2022-10-21T14:21:43.375Z,9.95
2022-10-21T14:24:28.683Z,16.92
2022-10-21T14:26:57.225Z,6.85
2022-10-21T14:29:28.043Z,4.80
2022-10-21T14:31:56.909Z,12.02
2022-10-21T14:34:26.745Z,4.93
2022-10-21T14:37:13.041Z,4.72
2022-10-21T14:39:40.176Z,5.13
2022-10-21T14:42:17.999Z,3.92
2022-10-21T14:44:46.296Z,4.63
2022-10-21T14:47:19.145Z,6.47
2022-10-21T14:49:52.769Z,8.18
2022-10-21T14:52:22.947Z,6.72
2022-10-21T14:55:00.169Z,4.38
2022-10-21T14:57:40.930Z,8.15
2022-10-21T15:00:21.343Z,7.65
2022-10-21T15:02:49.195Z,4.15
2022-10-21T15:05:36.729Z,7.68
2022-10-21T15:08:19.011Z,9.45
2022-10-21T15:10:58.682Z,7.10
2022-10-21T15:13:26.922Z,8.98
2022-10-21T15:15:57.463Z,7.45
2022-10-21T15:18:40.106Z,8.27
2022-10-21T15:21:10.479Z,4.38
2022-10-21T15:23:53.490Z,5.68
2022-10-21T15:26:29.619Z,2.70
2022-10-21T15:28:56.957Z,7.90
2022-10-21T15:31:26.329Z,6.30
2022-10-21T15:36:22.234Z,4.70
2022-10-21T15:38:49.499Z,4.25
2022-10-21T15:41:22.150Z,7.38
2022-10-21T15:43:58.802Z,7.75
2022-10-21T15:46:27.056Z,10.43
2022-10-21T15:48:54.153Z,7.22
2022-10-21T15:51:21.489Z,7.40
2022-10-21T15:53:48.643Z,6.13
2022-10-21T15:56:18.109Z,9.80
2022-10-21T15:58:45.306Z,6.97
2022-10-21T16:01:14.797Z,5.55
2022-10-21T16:03:42.562Z,8.30
2022-10-21T16:06:18.597Z,5.78
2022-10-21T16:08:46.390Z,8.30
2022-10-21T16:11:18.966Z,8.73
2022-10-21T16:16:24.574Z,3.83
2022-10-21T16:18:52.743Z,8.32
2022-10-21T16:21:21.779Z,12.13
2022-10-21T16:23:49.342Z,5.70
2022-10-21T16:26:21.473Z,9.02
2022-10-21T16:28:49.858Z,5.45
2022-10-21T16:31:17.609Z,6.65
2022-10-21T16:33:45.237Z,7.22
2022-10-21T16:36:22.186Z,8.85
2022-10-21T16:38:51.133Z,7.78
2022-10-21T16:41:20.930Z,7.10
2022-10-21T16:43:48.101Z,5.53
2022-10-21T16:46:30.016Z,6.07
2022-10-21T16:48:58.730Z,8.00
2022-10-21T16:51:30.313Z,7.85
2022-10-21T16:53:57.525Z,6.55
2022-10-21T16:56:24.665Z,7.47
2022-10-21T16:58:52.509Z,6.80
2022-10-21T17:01:23.492Z,8.57
2022-10-21T17:03:51.797Z,8.15
2022-10-21T17:06:21.438Z,7.50
2022-10-21T17:08:50.100Z,5.88
2022-10-21T17:11:23.371Z,6.80
2022-10-21T17:13:51.432Z,11.50
2022-10-21T17:16:20.066Z,10.73
2022-10-21T17:18:48.263Z,7.65
2022-10-21T17:21:25.083Z,8.23
2022-10-21T17:23:53.049Z,10.77
2022-10-21T17:26:21.164Z,7.85
2022-10-21T17:28:48.364Z,5.65
2022-10-21T17:31:18.243Z,8.40
2022-10-21T17:33:45.483Z,8.27
2022-10-21T17:36:12.921Z,6.82
2022-10-21T17:38:41.834Z,8.63
2022-10-21T17:41:10.277Z,6.25
2022-10-21T17:43:37.411Z,14.87
2022-10-21T17:46:05.142Z,8.70
2022-10-21T17:48:32.902Z,8.48
2022-10-21T17:51:01.944Z,9.52
2022-10-21T17:53:30.107Z,23.55
2022-10-21T17:55:58.149Z,8.80
2022-10-21T17:58:26.321Z,12.48
2022-10-21T18:00:56.440Z,9.30
2022-10-21T18:03:28.565Z,10.00
2022-10-21T18:05:56.235Z,9.20
2022-10-21T18:08:23.912Z,8.38
2022-10-21T18:10:56.362Z,6.82
2022-10-21T18:13:25.038Z,8.50
2022-10-21T18:15:53.161Z,8.07
2022-10-21T18:18:21.887Z,7.97
2022-10-21T18:20:49.020Z,10.20
2022-10-21T18:23:16.224Z,7.57
2022-10-21T18:25:43.309Z,8.77
2022-10-21T18:28:10.374Z,14.05
2022-10-21T18:30:49.755Z,11.98
2022-10-21T18:33:28.603Z,11.77
2022-10-21T18:35:55.863Z,12.07
2022-10-21T18:38:23.079Z,13.73
2022-10-21T18:40:56.314Z,15.60
2022-10-21T18:43:29.187Z,13.93
2022-10-21T18:45:56.802Z,9.90
2022-10-21T18:48:24.177Z,14.50
2022-10-21T18:50:51.289Z,13.07
2022-10-21T18:53:18.386Z,18.25
2022-10-21T18:55:45.457Z,11.85
2022-10-21T18:58:12.578Z,15.93
2022-10-21T19:00:39.684Z,14.38
2022-10-21T19:03:06.806Z,11.93
2022-10-21T19:05:33.918Z,13.20
2022-10-21T19:08:01.012Z,19.27
2022-10-21T19:10:28.124Z,21.25
2022-10-21T19:12:55.279Z,15.77
2022-10-21T19:15:22.401Z,21.67
2022-10-21T19:17:49.533Z,15.68
2022-10-21T19:20:16.954Z,17.75
2022-10-21T19:22:44.026Z,14.52
2022-10-21T19:25:11.209Z,16.13
2022-10-21T19:27:38.643Z,15.32
2022-10-21T19:30:06.288Z,14.18
2022-10-21T19:32:33.375Z,18.58
2022-10-21T19:35:00.434Z,13.05
2022-10-21T19:37:28.904Z,16.67
2022-10-21T19:39:56.072Z,16.63
2022-10-21T19:42:23.130Z,26.08
2022-10-21T19:44:50.562Z,16.73
2022-10-21T19:47:17.663Z,17.15
2022-10-21T19:49:44.829Z,23.20
2022-10-21T19:52:11.872Z,26.15
2022-10-21T19:54:39.087Z,24.02
2022-10-21T19:57:06.210Z,21.77
2022-10-21T19:59:33.269Z,24.92
2022-10-21T20:02:00.358Z,23.77
2022-10-21T20:04:27.524Z,24.83
2022-10-21T20:06:56.379Z,21.95
2022-10-21T20:09:23.460Z,20.98
2022-10-21T20:11:50.628Z,25.92
2022-10-21T20:14:18.447Z,21.38
2022-10-21T20:16:48.892Z,24.00
2022-10-21T20:19:16.060Z,14.73
2022-10-21T20:21:43.692Z,20.63
2022-10-21T20:24:14.603Z,19.75
2022-10-21T20:26:48.892Z,19.92
2022-10-21T20:29:16.008Z,13.73
2022-10-21T20:31:43.122Z,19.63
2022-10-21T20:34:13.325Z,19.83
2022-10-21T20:36:40.470Z,17.73
2022-10-21T20:39:07.569Z,21.60
2022-10-21T20:41:37.192Z,17.50
2022-10-21T20:44:06.377Z,13.02
2022-10-21T20:46:35.890Z,16.60
2022-10-21T20:49:06.029Z,19.23
2022-10-21T20:51:34.217Z,14.18
2022-10-21T20:54:03.803Z,18.13
2022-10-21T20:56:36.564Z,18.00
2022-10-21T20:59:05.137Z,22.13
2022-10-21T21:01:34.911Z,18.07
2022-10-21T21:04:06.043Z,15.82
2022-10-21T21:06:38.843Z,20.00
2022-10-21T21:09:43.718Z,14.65
2022-10-21T21:11:54.120Z,18.33
2022-10-21T21:14:21.262Z,11.15
2022-10-21T21:16:48.435Z,16.48
2022-10-21T21:19:15.724Z,12.60
2022-10-21T21:21:42.847Z,14.80
2022-10-21T21:24:09.954Z,14.68
2022-10-21T21:26:39.733Z,15.32
2022-10-21T21:29:08.347Z,12.07
2022-10-21T21:31:37.110Z,11.90
2022-10-21T21:34:05.113Z,20.02
2022-10-21T21:36:32.373Z,15.77
2022-10-21T21:38:59.722Z,13.85
2022-10-21T21:41:27.112Z,15.95
2022-10-21T21:43:56.453Z,17.05
2022-10-21T21:46:24.059Z,12.95
2022-10-21T21:49:05.041Z,14.18
2022-10-21T21:51:35.149Z,11.77
2022-10-21T21:56:29.849Z,14.95
2022-10-21T21:58:57.985Z,18.95
2022-10-21T22:01:27.736Z,15.23
2022-10-21T22:03:55.785Z,14.45
2022-10-21T22:08:53.889Z,16.38
2022-10-21T22:11:24.855Z,17.08
2022-10-21T22:13:52.331Z,10.82
2022-10-21T22:16:24.266Z,14.40
2022-10-21T22:18:51.479Z,10.73
2022-10-21T22:21:19.163Z,14.60
2022-10-21T22:23:48.255Z,14.10
2022-10-21T22:26:16.769Z,14.73
2022-10-21T22:28:44.695Z,19.23
2022-10-21T22:31:14.551Z,18.50
2022-10-21T22:36:16.400Z,12.55
2022-10-21T22:38:44.743Z,14.75
2022-10-21T22:41:13.055Z,12.63
2022-10-21T22:43:40.803Z,16.75
2022-10-21T22:46:29.433Z,17.90
2022-10-21T22:48:55.296Z,15.05
2022-10-21T22:51:22.409Z,15.55
2022-10-21T22:53:53.630Z,14.90
2022-10-21T22:56:25.603Z,13.30
2022-10-21T22:58:52.741Z,16.00
2022-10-21T23:01:20.145Z,11.27
2022-10-21T23:03:47.193Z,13.18
2022-10-21T23:06:14.620Z,11.35
2022-10-21T23:08:41.827Z,12.85
2022-10-21T23:11:09.082Z,11.38
2022-10-21T23:13:36.185Z,13.45
2022-10-21T23:16:03.335Z,14.02
2022-10-21T23:18:30.456Z,12.50
2022-10-21T23:20:57.504Z,16.70
2022-10-21T23:23:24.738Z,12.68
2022-10-21T23:25:51.837Z,10.60
2022-10-21T23:30:50.930Z,21.73
2022-10-21T23:33:17.983Z,11.55
2022-10-21T23:35:45.065Z,10.10
2022-10-21T23:38:12.109Z,7.95
2022-10-21T23:40:39.406Z,12.90
2022-10-21T23:43:06.484Z,9.95
2022-10-21T23:45:33.598Z,14.00
2022-10-21T23:48:00.660Z,10.60
2022-10-21T23:50:28.028Z,15.70
2022-10-21T23:52:55.099Z,8.73
2022-10-21T23:55:22.238Z,14.88
2022-10-21T23:57:49.314Z,7.50
